createdAt,value
2018-05-15T00:00:06.191Z,99.99
2018-05-15T00:01:06.446Z,99.99
2018-05-15T00:02:06.431Z,99.99
2018-05-15T00:03:06.427Z,99.99
2018-05-15T00:04:06.413Z,99.99
2018-05-15T00:05:06.403Z,99.99
2018-05-15T00:06:06.123Z,99.99
2018-05-15T00:07:06.111Z,99.99
2018-05-15T00:08:06.445Z,99.99
2018-05-15T00:09:06.356Z,99.99
2018-05-15T00:10:06.083Z,99.99
2018-05-15T00:11:06.070Z,99.99
2018-05-15T00:12:06.049Z,99.99
2018-05-15T00:13:06.517Z,99.99
2018-05-15T00:14:06.041Z,99.99
2018-05-15T00:15:06.029Z,99.99
2018-05-15T00:16:06.271Z,99.99
2018-05-15T00:17:06.261Z,99.99
2018-05-15T00:18:06.257Z,99.99
2018-05-15T00:19:06.234Z,99.99
2018-05-15T00:20:05.955Z,99.99
2018-05-15T00:21:06.210Z,99.99
2018-05-15T00:22:06.202Z,99.99
2018-05-15T00:23:06.205Z,99.99
2018-05-15T00:24:05.914Z,99.99
2018-05-15T00:25:05.901Z,99.99
2018-05-15T00:26:06.151Z,99.99
2018-05-15T00:27:05.873Z,99.99
2018-05-15T00:28:05.861Z,99.99
2018-05-15T00:29:05.853Z,99.99
2018-05-15T00:30:05.840Z,99.99
2018-05-15T00:31:05.827Z,99.99
2018-05-15T00:32:05.813Z,99.99
2018-05-15T00:33:05.802Z,99.99
2018-05-15T00:34:05.793Z,99.99
2018-05-15T00:35:06.051Z,99.99
2018-05-15T00:36:06.029Z,99.99
2018-05-15T00:37:05.757Z,99.99
2018-05-15T00:38:05.747Z,99.99
2018-05-15T00:39:05.992Z,99.99
2018-05-15T00:40:05.726Z,99.99
2018-05-15T00:41:05.705Z,99.99
2018-05-15T00:42:05.960Z,99.99
2018-05-15T00:43:05.954Z,99.99
2018-05-15T00:44:05.668Z,99.99
2018-05-15T00:45:05.657Z,99.99
2018-05-15T00:46:05.649Z,99.99
2018-05-15T00:47:05.634Z,99.99
2018-05-15T00:48:05.621Z,99.99
2018-05-15T00:49:05.877Z,99.99
2018-05-15T00:50:05.873Z,99.99
2018-05-15T00:51:05.581Z,99.99
2018-05-15T00:52:05.839Z,99.99
2018-05-15T00:53:05.564Z,99.99
2018-05-15T00:54:05.551Z,99.99
2018-05-15T00:55:05.799Z,99.99
2018-05-15T00:56:05.527Z,99.99
2018-05-15T00:57:05.776Z,99.99
2018-05-15T00:58:05.497Z,99.99
2018-05-15T00:59:05.482Z,99.99
2018-05-15T01:00:05.746Z,99.99
2018-05-15T01:01:05.466Z,99.99
2018-05-15T01:02:05.447Z,99.99
2018-05-15T01:03:05.703Z,99.99
2018-05-15T01:04:05.691Z,99.99
2018-05-15T01:05:05.410Z,99.99
2018-05-15T01:06:05.405Z,99.99
2018-05-15T01:07:05.386Z,99.99
2018-05-15T01:08:05.381Z,99.99
2018-05-15T01:09:05.625Z,99.99
2018-05-15T01:10:05.347Z,99.99
2018-05-15T01:11:05.333Z,99.99
2018-05-15T01:12:05.616Z,99.99
2018-05-15T01:13:05.577Z,99.99
2018-05-15T01:14:05.297Z,99.99
2018-05-15T01:15:05.293Z,99.99
2018-05-15T01:16:05.275Z,99.99
2018-05-15T01:17:05.536Z,99.99
2018-05-15T01:18:05.514Z,99.99
2018-05-15T01:19:05.511Z,99.99
2018-05-15T01:20:05.553Z,99.99
2018-05-15T01:21:05.212Z,99.99
2018-05-15T01:22:05.464Z,99.99
2018-05-15T01:23:05.199Z,99.99
2018-05-15T01:24:05.444Z,99.99
2018-05-15T01:25:05.425Z,99.99
2018-05-15T01:26:05.417Z,99.99
2018-05-15T01:27:05.397Z,99.99
2018-05-15T01:28:05.394Z,99.99
2018-05-15T01:29:05.377Z,99.99
2018-05-15T01:30:05.099Z,99.99
2018-05-15T01:31:05.347Z,99.99
2018-05-15T01:32:05.074Z,99.99
2018-05-15T01:33:05.068Z,99.99
2018-05-15T01:34:05.310Z,99.99
2018-05-15T01:35:05.033Z,99.99
2018-05-15T01:36:05.282Z,99.99
2018-05-15T01:37:05.270Z,99.99
2018-05-15T01:38:05.269Z,99.99
2018-05-15T01:39:05.249Z,99.99
2018-05-15T01:40:04.970Z,99.99
2018-05-15T01:41:04.958Z,99.99
2018-05-15T01:42:04.945Z,99.99
2018-05-15T01:43:05.200Z,99.99
2018-05-15T01:44:05.192Z,99.99
2018-05-15T01:45:05.173Z,99.99
2018-05-15T01:46:04.898Z,99.99
2018-05-15T01:47:05.149Z,99.99
2018-05-15T01:48:05.140Z,99.99
2018-05-15T01:49:04.859Z,99.99
2018-05-15T01:50:05.117Z,99.99
2018-05-15T01:51:05.097Z,99.99
2018-05-15T01:52:05.084Z,99.99
2018-05-15T01:53:04.807Z,99.99
2018-05-15T01:54:05.055Z,99.99
2018-05-15T01:55:05.047Z,99.99
2018-05-15T01:56:05.036Z,99.99
2018-05-15T01:57:05.029Z,99.99
2018-05-15T01:58:05.003Z,99.99
2018-05-15T01:59:04.735Z,99.99
2018-05-15T02:00:04.717Z,99.99
2018-05-15T02:01:04.703Z,99.99
2018-05-15T02:02:04.959Z,99.99
2018-05-15T02:03:04.944Z,99.99
2018-05-15T02:04:04.664Z,99.99
2018-05-15T02:05:04.658Z,99.99
2018-05-15T02:06:04.906Z,99.99
2018-05-15T02:07:04.893Z,99.99
2018-05-15T02:08:04.879Z,99.99
2018-05-15T02:09:04.601Z,99.99
2018-05-15T02:10:04.590Z,99.99
2018-05-15T02:11:04.843Z,99.99
2018-05-15T02:12:04.829Z,99.99
2018-05-15T02:13:05.018Z,99.99
2018-05-15T02:14:04.544Z,99.99
2018-05-15T02:15:04.867Z,99.99
2018-05-15T02:16:04.517Z,99.99
2018-05-15T02:17:04.496Z,99.99
2018-05-15T02:18:04.754Z,99.99
2018-05-15T02:19:04.474Z,99.99
2018-05-15T02:20:04.460Z,99.99
2018-05-15T02:21:04.715Z,99.99
2018-05-15T02:22:04.447Z,99.99
2018-05-15T02:23:04.691Z,99.99
2018-05-15T02:24:04.407Z,99.99
2018-05-15T02:25:04.396Z,99.99
2018-05-15T02:26:04.650Z,99.99
2018-05-15T02:27:04.370Z,99.99
2018-05-15T02:28:04.622Z,99.99
2018-05-15T02:29:04.349Z,99.99
2018-05-15T02:30:04.608Z,99.99
2018-05-15T02:31:04.321Z,99.99
2018-05-15T02:32:04.573Z,99.99
2018-05-15T02:33:04.565Z,99.99
2018-05-15T02:34:04.286Z,99.99
2018-05-15T02:35:04.540Z,99.99
2018-05-15T02:36:04.522Z,99.99
2018-05-15T02:37:04.513Z,99.99
2018-05-15T02:38:04.515Z,99.99
2018-05-15T02:39:04.216Z,99.99
2018-05-15T02:40:04.206Z,99.99
2018-05-15T02:41:04.195Z,99.99
2018-05-15T02:42:04.452Z,99.99
2018-05-15T02:43:04.172Z,99.99
2018-05-15T02:44:04.426Z,99.99
2018-05-15T02:45:04.413Z,99.99
2018-05-15T02:46:04.125Z,99.99
2018-05-15T02:47:04.389Z,99.99
2018-05-15T02:48:04.366Z,99.99
2018-05-15T02:49:04.087Z,99.99
2018-05-15T02:50:04.345Z,99.99
2018-05-15T02:51:04.327Z,99.99
2018-05-15T02:52:04.053Z,99.99
2018-05-15T02:53:04.052Z,99.99
2018-05-15T02:54:04.294Z,99.99
2018-05-15T02:55:04.284Z,99.99
2018-05-15T02:56:04.261Z,99.99
2018-05-15T02:57:04.252Z,99.99
2018-05-15T02:58:03.975Z,99.99
2018-05-15T02:59:03.959Z,99.99
2018-05-15T03:00:03.959Z,99.99
2018-05-15T03:01:04.202Z,99.99
2018-05-15T03:02:04.186Z,99.99
2018-05-15T03:03:04.178Z,99.99
2018-05-15T03:04:04.171Z,99.99
2018-05-15T03:05:04.150Z,99.99
2018-05-15T03:06:04.138Z,99.99
2018-05-15T03:07:03.859Z,99.99
2018-05-15T03:08:03.842Z,99.99
2018-05-15T03:09:03.833Z,99.99
2018-05-15T03:10:03.812Z,99.99
2018-05-15T03:11:03.806Z,99.99
2018-05-15T03:12:03.793Z,99.99
2018-05-15T03:13:03.776Z,99.99
2018-05-15T03:14:04.030Z,99.99
2018-05-15T03:15:03.752Z,99.99
2018-05-15T03:16:04.008Z,99.99
2018-05-15T03:17:03.991Z,99.99
2018-05-15T03:18:03.978Z,99.99
2018-05-15T03:19:03.967Z,99.99
2018-05-15T03:20:03.693Z,99.99
2018-05-15T03:21:03.941Z,99.99
2018-05-15T03:22:03.925Z,99.99
2018-05-15T03:23:03.919Z,99.99
2018-05-15T03:24:03.900Z,99.99
2018-05-15T03:25:03.890Z,99.99
2018-05-15T03:26:03.878Z,99.99
2018-05-15T03:27:03.858Z,99.99
2018-05-15T03:28:03.849Z,99.99
2018-05-15T03:29:03.839Z,99.99
2018-05-15T03:30:03.561Z,99.99
2018-05-15T03:31:04.016Z,99.99
2018-05-15T03:32:04.003Z,99.99
2018-05-15T03:33:03.528Z,99.99
2018-05-15T03:34:03.778Z,99.99
2018-05-15T03:35:03.759Z,99.99
2018-05-15T03:36:03.748Z,99.99
2018-05-15T03:37:03.468Z,99.99
2018-05-15T03:38:03.717Z,99.99
2018-05-15T03:39:03.439Z,99.99
2018-05-15T03:40:03.442Z,99.99
2018-05-15T03:41:03.678Z,99.99
2018-05-15T03:42:03.666Z,99.99
2018-05-15T03:43:03.720Z,99.99
2018-05-15T03:44:03.376Z,99.99
2018-05-15T03:45:03.361Z,99.99
2018-05-15T03:46:03.348Z,99.99
2018-05-15T03:47:03.603Z,99.99
2018-05-15T03:48:03.321Z,99.99
2018-05-15T03:49:03.314Z,99.99
2018-05-15T03:50:03.564Z,99.99
2018-05-15T03:51:03.553Z,99.99
2018-05-15T03:52:03.532Z,99.99
2018-05-15T03:53:03.520Z,99.99
2018-05-15T03:54:03.511Z,99.99
2018-05-15T03:55:03.230Z,99.99
2018-05-15T03:56:03.223Z,99.99
2018-05-15T03:57:03.204Z,99.99
2018-05-15T03:58:03.189Z,99.99
2018-05-15T03:59:03.174Z,99.99
2018-05-15T04:00:03.164Z,99.99
2018-05-15T04:01:03.150Z,99.99
2018-05-15T04:02:03.414Z,99.99
2018-05-15T04:03:03.389Z,99.99
2018-05-15T04:04:03.117Z,99.99
2018-05-15T04:05:03.364Z,99.99
2018-05-15T04:06:03.090Z,99.99
2018-05-15T04:07:03.333Z,99.99
2018-05-15T04:08:03.330Z,99.99
2018-05-15T04:09:03.315Z,99.99
2018-05-15T04:10:03.302Z,99.99
2018-05-15T04:11:03.603Z,99.99
2018-05-15T04:12:03.271Z,99.99
2018-05-15T04:13:03.460Z,99.99
2018-05-15T04:14:02.984Z,99.99
2018-05-15T04:15:02.967Z,99.99
2018-05-15T04:16:02.954Z,99.99
2018-05-15T04:17:03.210Z,99.99
2018-05-15T04:18:03.192Z,99.99
2018-05-15T04:19:02.917Z,99.99
2018-05-15T04:20:03.166Z,99.99
2018-05-15T04:21:02.888Z,99.99
2018-05-15T04:22:02.873Z,99.99
2018-05-15T04:23:02.863Z,99.99
2018-05-15T04:24:02.850Z,99.99
2018-05-15T04:25:03.102Z,99.99
2018-05-15T04:26:02.828Z,99.99
2018-05-15T04:27:03.082Z,99.99
2018-05-15T04:28:02.816Z,99.99
2018-05-15T04:29:03.051Z,99.99
2018-05-15T04:30:03.039Z,99.99
2018-05-15T04:31:03.022Z,99.99
2018-05-15T04:32:02.744Z,99.99
2018-05-15T04:33:03.000Z,99.99
2018-05-15T04:34:02.717Z,99.99
2018-05-15T04:35:03.159Z,99.99
2018-05-15T04:36:02.694Z,99.99
2018-05-15T04:37:02.945Z,99.99
2018-05-15T04:38:02.673Z,99.99
2018-05-15T04:39:02.920Z,99.99
2018-05-15T04:40:02.906Z,99.99
2018-05-15T04:41:02.624Z,99.99
2018-05-15T04:42:02.617Z,99.99
2018-05-15T04:43:03.068Z,99.99
2018-05-15T04:44:03.097Z,99.99
2018-05-15T04:45:02.840Z,99.99
2018-05-15T04:46:02.826Z,99.99
2018-05-15T04:47:02.814Z,99.99
2018-05-15T04:48:02.540Z,99.99
2018-05-15T04:49:02.524Z,99.99
2018-05-15T04:50:02.780Z,99.99
2018-05-15T04:51:02.497Z,99.99
2018-05-15T04:52:02.759Z,99.99
2018-05-15T04:53:02.738Z,99.99
2018-05-15T04:54:02.459Z,99.99
2018-05-15T04:55:02.453Z,99.99
2018-05-15T04:56:02.693Z,99.99
2018-05-15T04:57:02.688Z,99.99
2018-05-15T04:58:02.676Z,99.99
2018-05-15T04:59:02.656Z,99.99
2018-05-15T05:00:02.645Z,99.99
2018-05-15T05:01:02.636Z,99.99
2018-05-15T05:02:02.739Z,99.99
2018-05-15T05:03:02.605Z,99.99
2018-05-15T05:04:02.608Z,99.99
2018-05-15T05:05:02.577Z,99.99
2018-05-15T05:06:02.567Z,99.99
2018-05-15T05:07:02.287Z,99.99
2018-05-15T05:08:02.545Z,99.99
2018-05-15T05:09:02.261Z,99.99
2018-05-15T05:10:02.514Z,99.99
2018-05-15T05:11:02.243Z,99.99
2018-05-15T05:12:02.489Z,99.99
2018-05-15T05:13:02.482Z,99.99
2018-05-15T05:14:02.468Z,99.99
2018-05-15T05:15:02.189Z,99.99
2018-05-15T05:16:02.445Z,99.99
2018-05-15T05:17:02.167Z,99.99
2018-05-15T05:18:02.172Z,99.99
2018-05-15T05:19:02.402Z,99.99
2018-05-15T05:20:02.387Z,99.99
2018-05-15T05:21:02.573Z,99.99
2018-05-15T05:22:02.101Z,99.99
2018-05-15T05:23:02.087Z,99.99
2018-05-15T05:24:02.338Z,99.99
2018-05-15T05:25:02.322Z,99.99
2018-05-15T05:26:02.049Z,99.99
2018-05-15T05:27:02.324Z,99.99
2018-05-15T05:28:02.027Z,99.99
2018-05-15T05:29:02.007Z,99.99
2018-05-15T05:30:02.257Z,99.99
2018-05-15T05:31:02.253Z,99.99
2018-05-15T05:32:02.234Z,99.99
2018-05-15T05:33:02.224Z,99.99
2018-05-15T05:34:02.211Z,99.99
2018-05-15T05:35:02.195Z,99.99
2018-05-15T05:36:02.187Z,99.99
2018-05-15T05:37:02.179Z,99.99
2018-05-15T05:38:01.897Z,99.99
2018-05-15T05:39:01.888Z,99.99
2018-05-15T05:40:01.931Z,99.99
2018-05-15T05:41:02.118Z,99.99
2018-05-15T05:42:01.845Z,99.99
2018-05-15T05:43:02.099Z,99.99
2018-05-15T05:44:02.087Z,99.99
2018-05-15T05:45:02.081Z,99.99
2018-05-15T05:46:01.793Z,99.99
2018-05-15T05:47:02.044Z,99.99
2018-05-15T05:48:01.769Z,99.99
2018-05-15T05:49:02.029Z,99.99
2018-05-15T05:50:02.008Z,99.99
2018-05-15T05:51:01.998Z,99.99
2018-05-15T05:52:02.190Z,99.99
2018-05-15T05:53:01.705Z,99.99
2018-05-15T05:54:01.954Z,99.99
2018-05-15T05:55:01.946Z,99.99
2018-05-15T05:56:02.134Z,99.99
2018-05-15T05:57:01.919Z,99.99
2018-05-15T05:58:01.906Z,99.99
2018-05-15T05:59:01.901Z,99.99
2018-05-15T06:00:01.620Z,99.99
2018-05-15T06:01:01.878Z,99.99
2018-05-15T06:02:01.858Z,99.99
2018-05-15T06:03:01.846Z,99.99
2018-05-15T06:04:01.837Z,99.99
2018-05-15T06:05:01.825Z,99.99
2018-05-15T06:06:01.811Z,99.99
2018-05-15T06:07:01.798Z,99.99
2018-05-15T06:08:01.790Z,99.99
2018-05-15T06:09:01.789Z,99.99
2018-05-15T06:10:01.773Z,99.99
2018-05-15T06:11:01.908Z,99.99
2018-05-15T06:12:01.477Z,99.99
2018-05-15T06:13:01.935Z,99.99
2018-05-15T06:14:01.721Z,99.99
2018-05-15T06:15:01.705Z,99.99
2018-05-15T06:16:01.429Z,99.99
2018-05-15T06:17:01.749Z,99.99
2018-05-15T06:18:01.672Z,99.99
2018-05-15T06:19:01.653Z,99.99
2018-05-15T06:20:01.647Z,99.99
2018-05-15T06:21:01.994Z,99.99
2018-05-15T06:22:01.619Z,99.99
2018-05-15T06:23:01.615Z,99.99
2018-05-15T06:24:01.327Z,99.99
2018-05-15T06:25:01.591Z,99.99
2018-05-15T06:26:01.573Z,99.99
2018-05-15T06:27:01.291Z,99.99
2018-05-15T06:28:01.554Z,99.99
2018-05-15T06:29:01.539Z,99.99
2018-05-15T06:30:01.529Z,99.99
2018-05-15T06:31:01.515Z,99.99
2018-05-15T06:32:01.511Z,99.99
2018-05-15T06:33:01.223Z,99.99
2018-05-15T06:34:01.211Z,99.99
2018-05-15T06:35:01.202Z,99.99
2018-05-15T06:36:01.191Z,99.99
2018-05-15T06:37:01.176Z,99.99
2018-05-15T06:38:01.430Z,99.99
2018-05-15T06:39:01.425Z,99.99
2018-05-15T06:40:01.410Z,99.99
2018-05-15T06:41:01.134Z,99.99
2018-05-15T06:42:01.119Z,99.99
2018-05-15T06:43:01.372Z,99.99
2018-05-15T06:44:01.098Z,99.99
2018-05-15T06:45:01.348Z,99.99
2018-05-15T06:46:01.074Z,99.99
2018-05-15T06:47:01.321Z,99.99
2018-05-15T06:48:01.049Z,99.99
2018-05-15T06:49:01.040Z,99.99
2018-05-15T06:50:01.290Z,99.99
2018-05-15T06:51:01.287Z,99.99
2018-05-15T06:52:01.003Z,99.99
2018-05-15T06:53:01.265Z,99.99
2018-05-15T06:54:00.979Z,99.99
2018-05-15T06:55:01.232Z,99.99
2018-05-15T06:56:00.961Z,99.99
2018-05-15T06:57:01.216Z,99.99
2018-05-15T06:58:00.943Z,99.99
2018-05-15T06:59:00.929Z,99.99
2018-05-15T07:00:01.186Z,99.99
2018-05-15T07:01:00.905Z,99.99
2018-05-15T07:02:01.156Z,99.99
2018-05-15T07:03:00.878Z,99.99
2018-05-15T07:04:01.139Z,99.99
2018-05-15T07:05:01.125Z,99.99
2018-05-15T07:06:00.845Z,99.99
2018-05-15T07:07:00.834Z,99.99
2018-05-15T07:08:00.821Z,99.99
2018-05-15T07:09:00.814Z,99.99
2018-05-15T07:10:00.802Z,99.99
2018-05-15T07:11:01.064Z,99.99
2018-05-15T07:12:01.044Z,99.99
2018-05-15T07:13:00.766Z,99.99
2018-05-15T07:14:01.091Z,99.99
2018-05-15T07:15:01.019Z,99.99
2018-05-15T07:16:00.739Z,99.99
2018-05-15T07:17:00.727Z,99.99
2018-05-15T07:18:00.979Z,99.99
2018-05-15T07:19:00.976Z,99.99
2018-05-15T07:20:00.694Z,99.99
2018-05-15T07:21:00.953Z,99.99
2018-05-15T07:22:00.945Z,99.99
2018-05-15T07:23:00.665Z,99.99
2018-05-15T07:24:00.923Z,99.99
2018-05-15T07:25:00.645Z,99.99
2018-05-15T07:26:00.897Z,99.99
2018-05-15T07:27:00.890Z,99.99
2018-05-15T07:28:00.878Z,99.99
2018-05-15T07:29:00.863Z,99.64
2018-05-15T07:30:00.859Z,92.71
2018-05-15T07:31:00.585Z,88.22
2018-05-15T07:32:00.839Z,82.81
2018-05-15T07:33:00.588Z,76.64
2018-05-15T07:34:00.827Z,73.01
2018-05-15T07:35:00.549Z,69.95
2018-05-15T07:36:00.810Z,70.21
2018-05-15T07:37:00.815Z,67.37
2018-05-15T07:38:00.797Z,64.5
2018-05-15T07:39:00.792Z,63.75
2018-05-15T07:40:00.797Z,61.25
2018-05-15T07:41:00.517Z,60.8
2018-05-15T07:42:00.512Z,60.25
2018-05-15T07:43:00.770Z,59.67
2018-05-15T07:44:00.499Z,56.75
2018-05-15T07:45:00.763Z,56.87
2018-05-15T07:46:00.490Z,56.87
2018-05-15T07:47:00.487Z,56.68
2018-05-15T07:48:00.749Z,56.95
2018-05-15T07:49:00.748Z,57.72
2018-05-15T07:50:00.738Z,57.53
2018-05-15T07:51:00.473Z,56.95
2018-05-15T07:52:00.739Z,55.41
2018-05-15T07:53:00.734Z,56.87
2018-05-15T07:54:00.729Z,56.12
2018-05-15T07:55:00.728Z,56.32
2018-05-15T07:56:00.465Z,55.96
2018-05-15T07:57:00.721Z,54.62
2018-05-15T07:58:00.456Z,54.33
2018-05-15T07:59:00.454Z,53.28
2018-05-15T08:00:00.450Z,54.28
2018-05-15T08:01:00.720Z,54.77
2018-05-15T08:02:00.896Z,54.19
2018-05-15T08:03:00.443Z,55.82
2018-05-15T08:04:00.706Z,54.94
2018-05-15T08:05:00.709Z,54.55
2018-05-15T08:06:00.440Z,53.97
2018-05-15T08:07:00.441Z,52.5
2018-05-15T08:08:00.703Z,53.58
2018-05-15T08:09:00.437Z,51.07
2018-05-15T08:10:00.436Z,51.87
2018-05-15T08:11:00.706Z,52.48
2018-05-15T08:12:00.443Z,50.82
2018-05-15T08:13:00.632Z,51.51
2018-05-15T08:14:00.694Z,49.88
2018-05-15T08:15:00.705Z,49.58
2018-05-15T08:16:00.695Z,50.04
2018-05-15T08:17:00.704Z,49.88
2018-05-15T08:18:00.726Z,51.51
2018-05-15T08:19:00.698Z,50.04
2018-05-15T08:20:00.695Z,49.66
2018-05-15T08:21:00.430Z,49.07
2018-05-15T08:22:00.432Z,51.02
2018-05-15T08:23:00.698Z,50.63
2018-05-15T08:24:00.706Z,49.93
2018-05-15T08:25:00.437Z,51.48
2018-05-15T08:26:00.702Z,48.75
2018-05-15T08:27:00.705Z,51.75
2018-05-15T08:28:00.703Z,53.19
2018-05-15T08:29:00.700Z,54.5
2018-05-15T08:30:00.710Z,53.81
2018-05-15T08:31:00.433Z,54.86
2018-05-15T08:32:00.697Z,53.96
2018-05-15T08:33:00.445Z,53.18
2018-05-15T08:34:00.434Z,55.8
2018-05-15T08:35:00.698Z,55.58
2018-05-15T08:36:00.694Z,54.03
2018-05-15T08:37:00.701Z,55.75
2018-05-15T08:38:00.433Z,57.5
2018-05-15T08:39:00.750Z,56.6
2018-05-15T08:40:00.431Z,59.58
2018-05-15T08:41:00.431Z,59.64
2018-05-15T08:42:00.698Z,62.07
2018-05-15T08:43:00.693Z,62.33
2018-05-15T08:44:00.696Z,62.43
2018-05-15T08:45:00.689Z,60.97
2018-05-15T08:46:00.688Z,60.97
2018-05-15T08:47:00.427Z,61.17
2018-05-15T08:48:00.418Z,61.36
2018-05-15T08:49:00.677Z,62.98
2018-05-15T08:50:00.676Z,63.24
2018-05-15T08:51:00.680Z,63.92
2018-05-15T08:52:00.407Z,63.49
2018-05-15T08:53:00.402Z,65.11
2018-05-15T08:54:00.672Z,66.56
2018-05-15T08:55:00.400Z,67.53
2018-05-15T08:56:00.389Z,66.72
2018-05-15T08:57:00.665Z,66.53
2018-05-15T08:58:00.382Z,67.4
2018-05-15T08:59:00.653Z,65.95
2018-05-15T09:00:00.646Z,66.91
2018-05-15T09:01:00.370Z,67.21
2018-05-15T09:02:00.631Z,65.63
2018-05-15T09:03:00.361Z,66.59
2018-05-15T09:04:00.621Z,68.04
2018-05-15T09:05:00.353Z,66.59
2018-05-15T09:06:00.614Z,68.72
2018-05-15T09:07:00.604Z,67.72
2018-05-15T09:08:00.608Z,67.72
2018-05-15T09:09:00.594Z,66.66
2018-05-15T09:10:00.326Z,65.69
2018-05-15T09:11:00.593Z,67.24
2018-05-15T09:12:00.317Z,67.52
2018-05-15T09:13:00.576Z,69.07
2018-05-15T09:14:00.571Z,68.3
2018-05-15T09:15:00.302Z,68.2
2018-05-15T09:16:00.557Z,67.82
2018-05-15T09:17:00.562Z,68.78
2018-05-15T09:18:00.548Z,69.9
2018-05-15T09:19:00.551Z,70.04
2018-05-15T09:20:00.275Z,68.75
2018-05-15T09:21:00.533Z,65.75
2018-05-15T09:22:00.260Z,66.63
2018-05-15T09:23:00.358Z,67.69
2018-05-15T09:24:00.514Z,68.36
2018-05-15T09:25:00.245Z,67.2
2018-05-15T09:26:00.256Z,65.27
2018-05-15T09:27:00.500Z,68.65
2018-05-15T09:28:00.494Z,68.36
2018-05-15T09:29:00.482Z,66.72
2018-05-15T09:30:00.486Z,65.56
2018-05-15T09:31:00.207Z,65.75
2018-05-15T09:32:00.464Z,66.05
2018-05-15T09:33:00.462Z,67.88
2018-05-15T09:34:00.187Z,66.05
2018-05-15T09:35:00.449Z,68.36
2018-05-15T09:36:00.442Z,67.78
2018-05-15T09:37:00.172Z,66.33
2018-05-15T09:38:00.430Z,68.26
2018-05-15T09:39:00.163Z,66.63
2018-05-15T09:40:00.427Z,65.47
2018-05-15T09:41:00.413Z,65.17
2018-05-15T09:42:00.140Z,65.85
2018-05-15T09:43:00.400Z,65.27
2018-05-15T09:44:00.396Z,68.36
2018-05-15T09:45:00.389Z,68.07
2018-05-15T09:46:00.113Z,67.49
2018-05-15T09:47:00.544Z,66.82
2018-05-15T09:48:00.370Z,65.85
2018-05-15T09:49:00.364Z,65.08
2018-05-15T09:50:00.358Z,64.89
2018-05-15T09:51:00.348Z,65.75
2018-05-15T09:52:00.346Z,65.17
2018-05-15T09:53:00.075Z,65.37
2018-05-15T09:54:00.330Z,67.59
2018-05-15T09:55:00.059Z,66.72
2018-05-15T09:56:00.053Z,67.59
2018-05-15T09:57:00.309Z,68.84
2018-05-15T09:58:00.313Z,70.1
2018-05-15T09:59:00.299Z,66.43
2018-05-15T10:00:00.297Z,67.49
2018-05-15T10:01:00.023Z,69.23
2018-05-15T10:02:00.015Z,67.3
2018-05-15T10:03:00.277Z,65.3
2018-05-15T10:04:00.267Z,66.66
2018-05-15T10:05:00.265Z,66.85
2018-05-15T10:05:59.992Z,65.88
2018-05-15T10:07:00.250Z,66.85
2018-05-15T10:08:00.435Z,66.75
2018-05-15T10:09:00.239Z,68.1
2018-05-15T10:09:59.969Z,65.4
2018-05-15T10:11:00.227Z,65.2
2018-05-15T10:11:59.954Z,65.2
2018-05-15T10:13:00.214Z,67.43
2018-05-15T10:14:00.218Z,67.72
2018-05-15T10:14:59.935Z,67.72
2018-05-15T10:15:59.927Z,65.69
2018-05-15T10:16:59.926Z,64.92
2018-05-15T10:18:00.181Z,65.5
2018-05-15T10:19:00.176Z,67.36
2018-05-15T10:19:59.978Z,67.52
2018-05-15T10:21:00.173Z,64.76
2018-05-15T10:21:59.969Z,65.14
2018-05-15T10:22:59.902Z,67.08
2018-05-15T10:23:59.888Z,65.24
2018-05-15T10:24:59.883Z,65.92
2018-05-15T10:25:59.872Z,66.43
2018-05-15T10:27:00.135Z,63.53
2018-05-15T10:28:00.136Z,63.43
2018-05-15T10:29:00.133Z,65.2
2018-05-15T10:30:00.215Z,63.66
2018-05-15T10:31:00.189Z,62.04
2018-05-15T10:32:00.119Z,63.62
2018-05-15T10:32:59.845Z,61.69
2018-05-15T10:34:00.107Z,60.14
2018-05-15T10:34:59.841Z,60.14
2018-05-15T10:36:00.108Z,59.59
2018-05-15T10:37:00.098Z,59.59
2018-05-15T10:38:00.102Z,60.2
2018-05-15T10:39:00.182Z,59.61
2018-05-15T10:40:00.096Z,60.1
2018-05-15T10:40:59.828Z,61.85
2018-05-15T10:41:59.914Z,60.78
2018-05-15T10:43:00.092Z,60.68
2018-05-15T10:43:59.897Z,58.77
2018-05-15T10:45:00.092Z,58.58
2018-05-15T10:46:00.088Z,58.67
2018-05-15T10:46:59.820Z,57.58
2018-05-15T10:48:00.088Z,59.61
2018-05-15T10:49:00.080Z,59.81
2018-05-15T10:50:00.076Z,58.06
2018-05-15T10:51:00.075Z,58.48
2018-05-15T10:52:00.074Z,59.64
2018-05-15T10:53:00.071Z,57.8
2018-05-15T10:54:00.082Z,58.12
2018-05-15T10:55:00.071Z,56.96
2018-05-15T10:55:59.798Z,56.21
2018-05-15T10:56:59.795Z,56.86
2018-05-15T10:58:00.060Z,59.22
2018-05-15T10:59:00.061Z,59.22
2018-05-15T11:00:00.063Z,59.22
2018-05-15T11:01:00.059Z,58.83
2018-05-15T11:01:59.796Z,57.6
2018-05-15T11:02:59.791Z,57.72
2018-05-15T11:03:59.795Z,56.39
2018-05-15T11:04:59.793Z,55.05
2018-05-15T11:05:59.795Z,52.33
2018-05-15T11:07:00.061Z,54.38
2018-05-15T11:08:00.062Z,53.79
2018-05-15T11:09:00.067Z,55.47
2018-05-15T11:10:00.062Z,53.65
2018-05-15T11:11:00.067Z,54.36
2018-05-15T11:11:59.803Z,52.6
2018-05-15T11:13:00.072Z,51.34
2018-05-15T11:13:59.808Z,51.51
2018-05-15T11:14:59.806Z,51.61
2018-05-15T11:16:00.077Z,51.14
2018-05-15T11:17:00.086Z,50.16
2018-05-15T11:18:00.086Z,51.65
2018-05-15T11:18:59.822Z,50.68
2018-05-15T11:20:00.091Z,51.85
2018-05-15T11:20:59.822Z,52.56
2018-05-15T11:21:59.830Z,50.53
2018-05-15T11:22:59.830Z,49.88
2018-05-15T11:24:00.104Z,48.83
2018-05-15T11:24:59.837Z,47.66
2018-05-15T11:26:00.102Z,46.8
2018-05-15T11:27:00.111Z,47.5
2018-05-15T11:28:00.118Z,50.83
2018-05-15T11:29:00.117Z,49.48
2018-05-15T11:30:00.131Z,49.38
2018-05-15T11:31:00.130Z,50.37
2018-05-15T11:32:00.135Z,47.33
2018-05-15T11:33:00.137Z,46.18
2018-05-15T11:34:00.141Z,47.55
2018-05-15T11:35:00.150Z,46.18
2018-05-15T11:35:59.973Z,44.23
2018-05-15T11:36:59.896Z,46.18
2018-05-15T11:38:00.164Z,45.4
2018-05-15T11:39:00.170Z,45.59
2018-05-15T11:40:00.177Z,45.4
2018-05-15T11:41:00.185Z,44.24
2018-05-15T11:42:00.353Z,45.42
2018-05-15T11:43:00.199Z,45.52
2018-05-15T11:43:59.939Z,43.85
2018-05-15T11:45:00.209Z,43.98
2018-05-15T11:46:00.227Z,44.07
2018-05-15T11:46:59.951Z,43.88
2018-05-15T11:48:00.738Z,42.6
2018-05-15T11:49:00.343Z,43.73
2018-05-15T11:50:00.665Z,43.66
2018-05-15T11:51:02.239Z,43.56
2018-05-15T11:52:00.922Z,43.95
2018-05-15T11:53:02.560Z,43.66
2018-05-15T11:54:00.089Z,44.34
2018-05-15T11:55:00.003Z,43.85
2018-05-15T11:56:00.409Z,44.07
2018-05-15T11:57:00.017Z,43.02
2018-05-15T11:58:00.347Z,42.7
2018-05-15T11:59:00.289Z,43.88
2018-05-15T12:00:00.176Z,44.07
2018-05-15T12:01:00.302Z,42.5
2018-05-15T12:02:00.047Z,43.58
2018-05-15T12:03:00.056Z,42.31
2018-05-15T12:04:00.114Z,43.76
2018-05-15T12:05:00.064Z,44.15
2018-05-15T12:06:00.335Z,41.72
2018-05-15T12:07:00.335Z,43.88
2018-05-15T12:08:00.413Z,43.99
2018-05-15T12:09:00.439Z,43.72
2018-05-15T12:10:00.359Z,42.65
2018-05-15T12:11:00.109Z,43.92
2018-05-15T12:12:00.372Z,44.12
2018-05-15T12:13:00.459Z,41.37
2018-05-15T12:14:00.592Z,42.74
2018-05-15T12:15:00.415Z,44.41
2018-05-15T12:16:00.492Z,42.25
2018-05-15T12:17:00.413Z,41.96
2018-05-15T12:18:00.147Z,41.42
2018-05-15T12:19:00.156Z,43.77
2018-05-15T12:20:00.425Z,43.68
2018-05-15T12:21:00.447Z,43.77
2018-05-15T12:22:00.173Z,42.99
2018-05-15T12:23:00.449Z,41.82
2018-05-15T12:24:00.458Z,41.42
2018-05-15T12:25:00.200Z,43.68
2018-05-15T12:26:00.463Z,45.76
2018-05-15T12:27:00.471Z,42.23
2018-05-15T12:28:00.236Z,42.03
2018-05-15T12:29:00.495Z,42.94
2018-05-15T12:30:00.558Z,40.86
2018-05-15T12:31:00.502Z,41.42
2018-05-15T12:32:00.240Z,42.33
2018-05-15T12:33:00.562Z,42.52
2018-05-15T12:34:00.520Z,44.02
2018-05-15T12:35:00.524Z,42.55
2018-05-15T12:36:00.268Z,42.96
2018-05-15T12:37:00.543Z,40.51
2018-05-15T12:38:00.546Z,41.49
2018-05-15T12:39:00.549Z,42.79
2018-05-15T12:40:00.559Z,41.41
2018-05-15T12:41:00.303Z,41.02
2018-05-15T12:42:01.055Z,40.45
2018-05-15T12:43:00.577Z,39.95
2018-05-15T12:44:00.323Z,39.66
2018-05-15T12:45:00.596Z,38.78
2018-05-15T12:46:00.600Z,40.23
2018-05-15T12:47:00.341Z,38.84
2018-05-15T12:48:00.384Z,39.92
2018-05-15T12:49:00.626Z,39.92
2018-05-15T12:50:00.630Z,42.37
2018-05-15T12:51:00.373Z,41.78
2018-05-15T12:52:00.380Z,39.74
2018-05-15T12:53:00.382Z,38.45